sensor_id;sensor_type;location;lat;lon;timestamp;pressure;altitude;pressure_sealevel;temperature;humidity
66385;BME280;53426;55.872;37.462;2023-10-19T00:00:40;98209.78;;;6.19;81.52
66385;BME280;53426;55.872;37.462;2023-10-19T00:03:10;98205.44;;;6.09;81.77
66385;BME280;53426;55.872;37.462;2023-10-19T00:05:37;98182.03;;;5.96;81.94
66385;BME280;53426;55.872;37.462;2023-10-19T00:08:04;98175.66;;;5.89;82.20
66385;BME280;53426;55.872;37.462;2023-10-19T00:10:48;98206.72;;;6.14;82.08
66385;BME280;53426;55.872;37.462;2023-10-19T00:13:37;98187.72;;;6.01;81.37
66385;BME280;53426;55.872;37.462;2023-10-19T00:16:08;98202.84;;;6.18;81.45
66385;BME280;53426;55.872;37.462;2023-10-19T00:18:48;98210.31;;;6.13;81.55
66385;BME280;53426;55.872;37.462;2023-10-19T00:21:15;98174.53;;;5.92;81.72
66385;BME280;53426;55.872;37.462;2023-10-19T00:23:45;98205.44;;;6.09;81.31
66385;BME280;53426;55.872;37.462;2023-10-19T00:26:13;98198.41;;;6.09;81.37
66385;BME280;53426;55.872;37.462;2023-10-19T00:28:56;98175.69;;;5.99;81.32
66385;BME280;53426;55.872;37.462;2023-10-19T00:31:24;98199.53;;;6.16;80.88
66385;BME280;53426;55.872;37.462;2023-10-19T00:33:54;98149.75;;;5.84;80.43
66385;BME280;53426;55.872;37.462;2023-10-19T00:36:21;98193.97;;;6.10;80.34
66385;BME280;53426;55.872;37.462;2023-10-19T00:38:49;98186.34;;;6.07;80.33
66385;BME280;53426;55.872;37.462;2023-10-19T00:41:23;98204.50;;;6.19;80.44
66385;BME280;53426;55.872;37.462;2023-10-19T00:43:56;98183.16;;;6.03;80.47
66385;BME280;53426;55.872;37.462;2023-10-19T00:46:38;98203.81;;;6.17;80.51
66385;BME280;53426;55.872;37.462;2023-10-19T00:49:07;98189.94;;;6.06;80.09
66385;BME280;53426;55.872;37.462;2023-10-19T00:51:37;98214.31;;;6.17;80.19
66385;BME280;53426;55.872;37.462;2023-10-19T00:54:14;98198.66;;;6.06;80.21
66385;BME280;53426;55.872;37.462;2023-10-19T00:56:46;98207.94;;;6.10;79.86
66385;BME280;53426;55.872;37.462;2023-10-19T00:59:20;98168.88;;;5.96;80.03
66385;BME280;53426;55.872;37.462;2023-10-19T01:01:51;98184.25;;;6.01;79.89
66385;BME280;53426;55.872;37.462;2023-10-19T01:04:23;98192.44;;;6.07;79.35
66385;BME280;53426;55.872;37.462;2023-10-19T01:06:50;98206.28;;;6.09;79.56
66385;BME280;53426;55.872;37.462;2023-10-19T01:09:45;98183.53;;;5.89;80.23
66385;BME280;53426;55.872;37.462;2023-10-19T01:12:12;98209.16;;;6.06;80.24
66385;BME280;53426;55.872;37.462;2023-10-19T01:17:36;98190.44;;;5.90;79.71
66385;BME280;53426;55.872;37.462;2023-10-19T01:20:10;98175.44;;;5.81;79.86
66385;BME280;53426;55.872;37.462;2023-10-19T01:23:08;98177.56;;;5.87;80.11
66385;BME280;53426;55.872;37.462;2023-10-19T01:25:56;98202.41;;;6.04;79.98
66385;BME280;53426;55.872;37.462;2023-10-19T01:28:31;98195.34;;;6.04;79.85
66385;BME280;53426;55.872;37.462;2023-10-19T01:31:20;98187.88;;;6.00;79.43
66385;BME280;53426;55.872;37.462;2023-10-19T01:34:00;98188.13;;;5.97;79.30
66385;BME280;53426;55.872;37.462;2023-10-19T01:36:34;98189.47;;;5.91;79.38
66385;BME280;53426;55.872;37.462;2023-10-19T01:39:08;98208.72;;;6.01;79.88
66385;BME280;53426;55.872;37.462;2023-10-19T01:41:39;98208.28;;;5.96;79.44
66385;BME280;53426;55.872;37.462;2023-10-19T01:44:09;98212.28;;;5.91;79.70
66385;BME280;53426;55.872;37.462;2023-10-19T01:46:39;98202.09;;;5.97;80.04
66385;BME280;53426;55.872;37.462;2023-10-19T01:49:05;98171.88;;;5.82;79.47
66385;BME280;53426;55.872;37.462;2023-10-19T01:51:34;98203.06;;;6.06;79.82
66385;BME280;53426;55.872;37.462;2023-10-19T01:54:09;98196.28;;;5.94;79.25
66385;BME280;53426;55.872;37.462;2023-10-19T01:56:36;98194.50;;;6.04;79.75
66385;BME280;53426;55.872;37.462;2023-10-19T01:59:04;98191.06;;;6.03;79.24
66385;BME280;53426;55.872;37.462;2023-10-19T02:01:31;98192.44;;;6.07;79.43
66385;BME280;53426;55.872;37.462;2023-10-19T02:04:00;98192.03;;;6.12;79.18
66385;BME280;53426;55.872;37.462;2023-10-19T02:06:30;98195.25;;;6.15;79.39
66385;BME280;53426;55.872;37.462;2023-10-19T02:12:03;98191.06;;;6.13;78.55
66385;BME280;53426;55.872;37.462;2023-10-19T02:14:33;98195.66;;;6.11;78.70
66385;BME280;53426;55.872;37.462;2023-10-19T02:17:03;98173.47;;;5.94;78.33
66385;BME280;53426;55.872;37.462;2023-10-19T02:19:30;98175.66;;;5.89;78.66
66385;BME280;53426;55.872;37.462;2023-10-19T02:21:58;98181.50;;;6.02;78.83
66385;BME280;53426;55.872;37.462;2023-10-19T02:24:25;98189.94;;;6.06;78.80
66385;BME280;53426;55.872;37.462;2023-10-19T02:26:54;98191.91;;;6.13;79.12
66385;BME280;53426;55.872;37.462;2023-10-19T02:29:21;98170.03;;;6.03;78.85
66385;BME280;53426;55.872;37.462;2023-10-19T02:31:48;98188.47;;;6.22;78.73
66385;BME280;53426;55.872;37.462;2023-10-19T02:34:16;98192.75;;;6.23;78.48
66385;BME280;53426;55.872;37.462;2023-10-19T02:36:44;98170.88;;;6.13;78.32
66385;BME280;53426;55.872;37.462;2023-10-19T02:39:12;98172.97;;;6.10;78.29
66385;BME280;53426;55.872;37.462;2023-10-19T02:41:42;98178.34;;;6.18;78.01
66385;BME280;53426;55.872;37.462;2023-10-19T02:44:22;98190.25;;;6.22;78.75
66385;BME280;53426;55.872;37.462;2023-10-19T02:46:50;98182.22;;;6.14;78.28
66385;BME280;53426;55.872;37.462;2023-10-19T02:49:20;98177.06;;;6.03;78.30
66385;BME280;53426;55.872;37.462;2023-10-19T02:51:49;98192.44;;;6.07;78.54
66385;BME280;53426;55.872;37.462;2023-10-19T02:54:17;98190.88;;;5.95;78.68
66385;BME280;53426;55.872;37.462;2023-10-19T02:56:49;98186.44;;;5.96;78.97
66385;BME280;53426;55.872;37.462;2023-10-19T02:59:17;98178.75;;;6.04;79.92
66385;BME280;53426;55.872;37.462;2023-10-19T03:01:49;98181.06;;;5.97;79.41
66385;BME280;53426;55.872;37.462;2023-10-19T03:04:15;98177.47;;;5.98;79.44
66385;BME280;53426;55.872;37.462;2023-10-19T03:06:41;98192.88;;;6.12;78.96
66385;BME280;53426;55.872;37.462;2023-10-19T03:09:08;98191.47;;;6.08;79.02
66385;BME280;53426;55.872;37.462;2023-10-19T03:11:52;98187.31;;;6.06;79.02
66385;BME280;53426;55.872;37.462;2023-10-19T03:14:19;98199.06;;;6.02;79.08
66385;BME280;53426;55.872;37.462;2023-10-19T03:16:45;98195.78;;;6.09;80.24
66385;BME280;53426;55.872;37.462;2023-10-19T03:19:12;98194.28;;;6.16;79.77
66385;BME280;53426;55.872;37.462;2023-10-19T03:21:41;98188.44;;;6.13;79.70
66385;BME280;53426;55.872;37.462;2023-10-19T03:24:15;98184.44;;;6.09;79.59
66385;BME280;53426;55.872;37.462;2023-10-19T03:26:59;98191.50;;;6.18;79.44
66385;BME280;53426;55.872;37.462;2023-10-19T03:29:25;98193.69;;;6.13;79.69
66385;BME280;53426;55.872;37.462;2023-10-19T03:31:58;98200.06;;;6.10;79.51
66385;BME280;53426;55.872;37.462;2023-10-19T03:34:27;98192.56;;;6.06;78.95
66385;BME280;53426;55.872;37.462;2023-10-19T03:36:52;98164.09;;;5.80;79.09
66385;BME280;53426;55.872;37.462;2023-10-19T03:39:20;98174.22;;;5.85;79.56
66385;BME280;53426;55.872;37.462;2023-10-19T03:41:47;98200.44;;;6.06;79.83
66385;BME280;53426;55.872;37.462;2023-10-19T03:44:18;98200.75;;;6.12;80.40
66385;BME280;53426;55.872;37.462;2023-10-19T03:46:50;98199.81;;;6.23;79.92
66385;BME280;53426;55.872;37.462;2023-10-19T03:49:22;98194.28;;;6.16;79.12
66385;BME280;53426;55.872;37.462;2023-10-19T03:51:52;98190.41;;;6.11;78.62
66385;BME280;53426;55.872;37.462;2023-10-19T03:54:37;98200.09;;;6.20;78.69
66385;BME280;53426;55.872;37.462;2023-10-19T03:57:09;98180.97;;;6.08;78.89
66385;BME280;53426;55.872;37.462;2023-10-19T03:59:39;98197.59;;;6.18;78.40
66385;BME280;53426;55.872;37.462;2023-10-19T04:02:06;98205.06;;;6.23;78.19
66385;BME280;53426;55.872;37.462;2023-10-19T04:04:39;98201.47;;;6.24;77.91
66385;BME280;53426;55.872;37.462;2023-10-19T04:07:11;98198.72;;;6.25;78.41
66385;BME280;53426;55.872;37.462;2023-10-19T04:09:48;98199.69;;;6.34;78.36
66385;BME280;53426;55.872;37.462;2023-10-19T04:12:35;98193.22;;;6.38;77.94
66385;BME280;53426;55.872;37.462;2023-10-19T04:15:05;98196.53;;;6.40;77.84
66385;BME280;53426;55.872;37.462;2023-10-19T04:17:44;98182.66;;;6.28;77.38
66385;BME280;53426;55.872;37.462;2023-10-19T04:20:16;98177.69;;;6.16;77.76
66385;BME280;53426;55.872;37.462;2023-10-19T04:22:43;98191.38;;;6.19;77.57
66385;BME280;53426;55.872;37.462;2023-10-19T04:25:09;98211.47;;;6.30;77.61
66385;BME280;53426;55.872;37.462;2023-10-19T04:27:39;98210.63;;;6.29;77.86
66385;BME280;53426;55.872;37.462;2023-10-19T04:30:14;98222.94;;;6.39;78.02
66385;BME280;53426;55.872;37.462;2023-10-19T04:32:50;98186.53;;;6.24;77.63
66385;BME280;53426;55.872;37.462;2023-10-19T04:35:21;98175.47;;;6.21;77.62
66385;BME280;53426;55.872;37.462;2023-10-19T04:37:51;98216.50;;;6.52;77.29
66385;BME280;53426;55.872;37.462;2023-10-19T04:40:19;98212.91;;;6.53;77.26
66385;BME280;53426;55.872;37.462;2023-10-19T04:42:45;98205.16;;;6.52;76.95
66385;BME280;53426;55.872;37.462;2023-10-19T04:45:12;98210.00;;;6.56;76.48
66385;BME280;53426;55.872;37.462;2023-10-19T04:47:39;98214.41;;;6.56;76.59
66385;BME280;53426;55.872;37.462;2023-10-19T04:50:06;98187.69;;;6.51;76.93
66385;BME280;53426;55.872;37.462;2023-10-19T04:52:32;98209.31;;;6.54;77.15
66385;BME280;53426;55.872;37.462;2023-10-19T04:54:59;98191.38;;;6.29;77.30
66385;BME280;53426;55.872;37.462;2023-10-19T04:57:28;98213.84;;;6.43;77.07
66385;BME280;53426;55.872;37.462;2023-10-19T04:59:54;98196.25;;;6.34;77.40
66385;BME280;53426;55.872;37.462;2023-10-19T05:02:21;98213.44;;;6.47;77.35
66385;BME280;53426;55.872;37.462;2023-10-19T05:04:48;98193.47;;;6.35;77.36
66385;BME280;53426;55.872;37.462;2023-10-19T05:07:14;98198.44;;;6.28;77.63
66385;BME280;53426;55.872;37.462;2023-10-19T05:09:43;98190.13;;;6.23;77.21
66385;BME280;53426;55.872;37.462;2023-10-19T05:12:09;98187.06;;;6.18;77.48
66385;BME280;53426;55.872;37.462;2023-10-19T05:14:38;98216.06;;;6.38;77.31
66385;BME280;53426;55.872;37.462;2023-10-19T05:17:05;98215.94;;;6.49;77.36
66385;BME280;53426;55.872;37.462;2023-10-19T05:19:32;98189.59;;;6.29;77.19
66385;BME280;53426;55.872;37.462;2023-10-19T05:21:59;98214.28;;;6.48;76.72
66385;BME280;53426;55.872;37.462;2023-10-19T05:24:25;98205.53;;;6.38;76.47
66385;BME280;53426;55.872;37.462;2023-10-19T05:26:53;98208.28;;;6.36;76.33
66385;BME280;53426;55.872;37.462;2023-10-19T05:29:21;98097.72;;;5.69;76.82
66385;BME280;53426;55.872;37.462;2023-10-19T05:31:47;98203.28;;;6.33;76.34
66385;BME280;53426;55.872;37.462;2023-10-19T05:34:18;98212.19;;;6.42;76.24
66385;BME280;53426;55.872;37.462;2023-10-19T05:36:44;98222.84;;;6.50;76.52
66385;BME280;53426;55.872;37.462;2023-10-19T05:39:15;98232.53;;;6.49;76.33
66385;BME280;53426;55.872;37.462;2023-10-19T05:41:41;98229.09;;;6.49;76.37
66385;BME280;53426;55.872;37.462;2023-10-19T05:44:19;98157.19;;;6.10;76.79
66385;BME280;53426;55.872;37.462;2023-10-19T05:46:45;98213.16;;;6.41;75.67
66385;BME280;53426;55.872;37.462;2023-10-19T05:49:13;98195.25;;;6.25;75.69
66385;BME280;53426;55.872;37.462;2023-10-19T05:51:43;98239.31;;;6.52;75.87
66385;BME280;53426;55.872;37.462;2023-10-19T05:54:10;98234.63;;;6.55;75.79
66385;BME280;53426;55.872;37.462;2023-10-19T05:56:37;98227.84;;;6.53;75.49
66385;BME280;53426;55.872;37.462;2023-10-19T05:59:04;98243.63;;;6.62;74.87
66385;BME280;53426;55.872;37.462;2023-10-19T06:01:32;98236.47;;;6.74;75.10
66385;BME280;53426;55.872;37.462;2023-10-19T06:03:58;98236.59;;;6.82;74.81
66385;BME280;53426;55.872;37.462;2023-10-19T06:06:25;98173.47;;;6.53;74.74
66385;BME280;53426;55.872;37.462;2023-10-19T06:08:51;98109.50;;;6.24;73.95
66385;BME280;53426;55.872;37.462;2023-10-19T06:11:23;98229.16;;;6.87;74.00
66385;BME280;53426;55.872;37.462;2023-10-19T06:13:49;98236.06;;;6.98;73.88
66385;BME280;53426;55.872;37.462;2023-10-19T06:16:17;98213.34;;;6.78;74.00
66385;BME280;53426;55.872;37.462;2023-10-19T06:18:44;98235.38;;;7.05;74.31
66385;BME280;53426;55.872;37.462;2023-10-19T06:21:10;98240.22;;;7.10;74.09
66385;BME280;53426;55.872;37.462;2023-10-19T06:23:37;98205.47;;;6.97;74.26
66385;BME280;53426;55.872;37.462;2023-10-19T06:26:12;98231.06;;;7.24;73.76
66385;BME280;53426;55.872;37.462;2023-10-19T06:28:39;98242.03;;;7.29;73.50
66385;BME280;53426;55.872;37.462;2023-10-19T06:31:06;98227.06;;;7.20;73.03
66385;BME280;53426;55.872;37.462;2023-10-19T06:33:32;98231.34;;;7.11;73.07
66385;BME280;53426;55.872;37.462;2023-10-19T06:35:59;98228.72;;;7.01;72.88
66385;BME280;53426;55.872;37.462;2023-10-19T06:42:16;98229.84;;;7.08;73.64
66385;BME280;53426;55.872;37.462;2023-10-19T06:44:43;98210.44;;;7.00;73.67
66385;BME280;53426;55.872;37.462;2023-10-19T06:47:09;98216.41;;;7.02;73.10
66385;BME280;53426;55.872;37.462;2023-10-19T06:49:36;98221.81;;;7.20;73.67
66385;BME280;53426;55.872;37.462;2023-10-19T06:52:02;98208.34;;;7.23;73.77
66385;BME280;53426;55.872;37.462;2023-10-19T06:54:31;98235.63;;;7.50;73.74
66385;BME280;53426;55.872;37.462;2023-10-19T06:56:57;98200.88;;;7.28;72.99
66385;BME280;53426;55.872;37.462;2023-10-19T06:59:24;98212.34;;;7.27;72.68
66385;BME280;53426;55.872;37.462;2023-10-19T07:01:50;98221.66;;;7.31;72.27
66385;BME280;53426;55.872;37.462;2023-10-19T07:04:16;98234.81;;;7.40;72.55
66385;BME280;53426;55.872;37.462;2023-10-19T07:06:41;98213.75;;;7.21;72.33
66385;BME280;53426;55.872;37.462;2023-10-19T07:09:07;98229.69;;;7.29;72.38
66385;BME280;53426;55.872;37.462;2023-10-19T07:11:36;98248.34;;;7.55;72.10
66385;BME280;53426;55.872;37.462;2023-10-19T07:14:02;98248.91;;;7.68;71.70
66385;BME280;53426;55.872;37.462;2023-10-19T07:16:32;98250.94;;;7.84;71.35
66385;BME280;53426;55.872;37.462;2023-10-19T07:19:35;98245.50;;;7.95;69.92
66385;BME280;53426;55.872;37.462;2023-10-19T07:22:03;98271.06;;;7.85;69.96
66385;BME280;53426;55.872;37.462;2023-10-19T07:24:59;98207.19;;;7.54;70.22
66385;BME280;53426;55.872;37.462;2023-10-19T07:27:29;98278.00;;;7.67;70.79
66385;BME280;53426;55.872;37.462;2023-10-19T07:30:10;98082.66;;;6.59;70.60
66385;BME280;53426;55.872;37.462;2023-10-19T07:32:38;98060.09;;;6.56;70.19
66385;BME280;53426;55.872;37.462;2023-10-19T07:35:07;98248.88;;;7.78;70.33
66385;BME280;53426;55.872;37.462;2023-10-19T07:37:33;98258.00;;;7.83;70.73
66385;BME280;53426;55.872;37.462;2023-10-19T07:39:59;98233.31;;;7.84;70.93
66385;BME280;53426;55.872;37.462;2023-10-19T07:42:24;98240.50;;;8.02;70.36
66385;BME280;53426;55.872;37.462;2023-10-19T07:44:51;98243.22;;;8.10;69.66
66385;BME280;53426;55.872;37.462;2023-10-19T07:47:17;98252.84;;;8.38;69.23
66385;BME280;53426;55.872;37.462;2023-10-19T07:49:44;98256.00;;;8.42;68.88
66385;BME280;53426;55.872;37.462;2023-10-19T07:52:09;98240.38;;;8.30;68.55
66385;BME280;53426;55.872;37.462;2023-10-19T07:54:37;98226.13;;;8.14;67.29
66385;BME280;53426;55.872;37.462;2023-10-19T07:57:04;98270.59;;;8.36;67.88
66385;BME280;53426;55.872;37.462;2023-10-19T07:59:42;98256.84;;;8.42;67.67
66385;BME280;53426;55.872;37.462;2023-10-19T08:02:08;98263.56;;;8.27;68.16
66385;BME280;53426;55.872;37.462;2023-10-19T08:04:34;98231.03;;;7.99;68.29
66385;BME280;53426;55.872;37.462;2023-10-19T08:07:01;98242.97;;;8.03;68.27
66385;BME280;53426;55.872;37.462;2023-10-19T08:09:29;98261.19;;;8.24;68.50
66385;BME280;53426;55.872;37.462;2023-10-19T08:12:00;98272.53;;;8.44;68.23
66385;BME280;53426;55.872;37.462;2023-10-19T08:14:31;98265.91;;;8.30;67.77
66385;BME280;53426;55.872;37.462;2023-10-19T08:16:56;98277.09;;;8.42;67.96
66385;BME280;53426;55.872;37.462;2023-10-19T08:19:22;98265.13;;;8.47;67.84
66385;BME280;53426;55.872;37.462;2023-10-19T08:21:48;98266.66;;;8.50;67.36
66385;BME280;53426;55.872;37.462;2023-10-19T08:24:14;98264.16;;;8.48;66.38
66385;BME280;53426;55.872;37.462;2023-10-19T08:26:44;98264.06;;;8.40;66.05
66385;BME280;53426;55.872;37.462;2023-10-19T08:29:12;98239.34;;;8.41;66.49
66385;BME280;53426;55.872;37.462;2023-10-19T08:31:41;98254.13;;;8.61;66.64
66385;BME280;53426;55.872;37.462;2023-10-19T08:34:08;98271.34;;;8.83;66.05
66385;BME280;53426;55.872;37.462;2023-10-19T08:36:37;98272.94;;;8.94;65.74
66385;BME280;53426;55.872;37.462;2023-10-19T08:39:07;98271.94;;;8.95;64.66
66385;BME280;53426;55.872;37.462;2023-10-19T08:41:36;98267.56;;;8.86;65.17
66385;BME280;53426;55.872;37.462;2023-10-19T08:44:04;98271.47;;;8.81;65.07
66385;BME280;53426;55.872;37.462;2023-10-19T08:46:40;98263.19;;;8.76;65.22
66385;BME280;53426;55.872;37.462;2023-10-19T08:49:12;98277.75;;;8.80;64.53
66385;BME280;53426;55.872;37.462;2023-10-19T08:51:40;98270.13;;;8.77;64.74
66385;BME280;53426;55.872;37.462;2023-10-19T08:54:12;98276.44;;;8.85;65.63
66385;BME280;53426;55.872;37.462;2023-10-19T08:56:38;98282.66;;;8.93;65.33
66385;BME280;53426;55.872;37.462;2023-10-19T08:59:13;98282.22;;;8.98;64.65
66385;BME280;53426;55.872;37.462;2023-10-19T09:01:43;98260.41;;;8.78;65.20
66385;BME280;53426;55.872;37.462;2023-10-19T09:04:12;98263.03;;;8.78;64.84
66385;BME280;53426;55.872;37.462;2023-10-19T09:06:42;98283.19;;;8.97;64.59
66385;BME280;53426;55.872;37.462;2023-10-19T09:09:09;98283.88;;;8.99;64.55
66385;BME280;53426;55.872;37.462;2023-10-19T09:11:40;98245.81;;;8.74;64.11
66385;BME280;53426;55.872;37.462;2023-10-19T09:14:06;98252.25;;;8.71;63.61
66385;BME280;53426;55.872;37.462;2023-10-19T09:16:32;98290.03;;;8.90;64.40
66385;BME280;53426;55.872;37.462;2023-10-19T09:18:59;98276.53;;;8.75;64.42
66385;BME280;53426;55.872;37.462;2023-10-19T09:21:25;98293.81;;;8.87;64.93
66385;BME280;53426;55.872;37.462;2023-10-19T09:23:53;98299.94;;;8.88;65.14
66385;BME280;53426;55.872;37.462;2023-10-19T09:26:20;98297.88;;;8.81;65.13
66385;BME280;53426;55.872;37.462;2023-10-19T09:28:49;98297.56;;;8.67;66.10
66385;BME280;53426;55.872;37.462;2023-10-19T09:31:16;98274.47;;;8.42;66.44
66385;BME280;53426;55.872;37.462;2023-10-19T09:33:43;98294.16;;;8.47;67.47
66385;BME280;53426;55.872;37.462;2023-10-19T09:36:10;98307.22;;;8.49;68.19
66385;BME280;53426;55.872;37.462;2023-10-19T09:38:46;98303.88;;;8.47;68.60
66385;BME280;53426;55.872;37.462;2023-10-19T09:41:20;98303.59;;;8.50;69.45
66385;BME280;53426;55.872;37.462;2023-10-19T09:43:50;98291.56;;;8.37;69.07
66385;BME280;53426;55.872;37.462;2023-10-19T09:46:38;98265.78;;;8.22;69.59
66385;BME280;53426;55.872;37.462;2023-10-19T09:49:05;98298.22;;;8.42;71.36
66385;BME280;53426;55.872;37.462;2023-10-19T09:51:32;98291.44;;;8.39;71.57
66385;BME280;53426;55.872;37.462;2023-10-19T09:56:42;98270.91;;;8.33;71.94
66385;BME280;53426;55.872;37.462;2023-10-19T09:59:23;98308.72;;;8.51;70.70
66385;BME280;53426;55.872;37.462;2023-10-19T10:02:12;98301.41;;;8.45;72.27
66385;BME280;53426;55.872;37.462;2023-10-19T10:04:39;98307.78;;;8.43;72.11
66385;BME280;53426;55.872;37.462;2023-10-19T10:07:10;98302.56;;;8.33;72.53
66385;BME280;53426;55.872;37.462;2023-10-19T10:09:38;98300.31;;;8.28;72.60
66385;BME280;53426;55.872;37.462;2023-10-19T10:12:35;98293.75;;;8.42;72.42
66385;BME280;53426;55.872;37.462;2023-10-19T10:15:05;98311.66;;;8.48;72.51
66385;BME280;53426;55.872;37.462;2023-10-19T10:17:34;98284.06;;;8.43;72.42
66385;BME280;53426;55.872;37.462;2023-10-19T10:22:39;98296.53;;;8.77;70.75
66385;BME280;53426;55.872;37.462;2023-10-19T10:25:26;98303.34;;;8.98;71.36
66385;BME280;53426;55.872;37.462;2023-10-19T10:27:55;98275.28;;;8.97;71.10
66385;BME280;53426;55.872;37.462;2023-10-19T10:30:21;98266.84;;;9.11;69.67
66385;BME280;53426;55.872;37.462;2023-10-19T10:32:50;98306.81;;;9.51;69.65
66385;BME280;53426;55.872;37.462;2023-10-19T10:38:04;98290.03;;;9.60;67.93
66385;BME280;53426;55.872;37.462;2023-10-19T10:40:48;98300.53;;;9.70;68.04
66385;BME280;53426;55.872;37.462;2023-10-19T10:43:15;98296.34;;;9.59;67.23
66385;BME280;53426;55.872;37.462;2023-10-19T10:45:41;98303.63;;;9.65;68.42
66385;BME280;53426;55.872;37.462;2023-10-19T10:48:15;98288.41;;;9.59;67.54
66385;BME280;53426;55.872;37.462;2023-10-19T10:50:41;98291.94;;;9.50;67.55
66385;BME280;53426;55.872;37.462;2023-10-19T10:53:16;98298.84;;;9.43;68.70
66385;BME280;53426;55.872;37.462;2023-10-19T10:55:42;98309.47;;;9.34;68.02
66385;BME280;53426;55.872;37.462;2023-10-19T10:58:09;98312.50;;;9.21;69.17
66385;BME280;53426;55.872;37.462;2023-10-19T11:00:44;98308.47;;;9.17;69.94
66385;BME280;53426;55.872;37.462;2023-10-19T11:03:13;98303.81;;;9.11;68.89
66385;BME280;53426;55.872;37.462;2023-10-19T11:05:39;98306.34;;;9.03;68.86
66385;BME280;53426;55.872;37.462;2023-10-19T11:08:13;98306.94;;;8.97;68.72
66385;BME280;53426;55.872;37.462;2023-10-19T11:10:40;98247.25;;;8.41;68.62
66385;BME280;53426;55.872;37.462;2023-10-19T11:13:13;98308.50;;;8.72;69.75
66385;BME280;53426;55.872;37.462;2023-10-19T11:15:53;98289.66;;;8.57;69.62
66385;BME280;53426;55.872;37.462;2023-10-19T11:18:33;98319.47;;;8.67;70.12
66385;BME280;53426;55.872;37.462;2023-10-19T11:21:00;98308.31;;;8.46;70.04
66385;BME280;53426;55.872;37.462;2023-10-19T11:23:37;98322.00;;;8.32;70.36
66385;BME280;53426;55.872;37.462;2023-10-19T11:26:04;98311.63;;;8.11;70.99
66385;BME280;53426;55.872;37.462;2023-10-19T11:28:31;98318.97;;;8.17;71.60
66385;BME280;53426;55.872;37.462;2023-10-19T11:31:14;98315.59;;;8.25;71.16
66385;BME280;53426;55.872;37.462;2023-10-19T11:33:42;98309.47;;;8.24;71.05
66385;BME280;53426;55.872;37.462;2023-10-19T11:36:13;98315.16;;;8.39;71.19
66385;BME280;53426;55.872;37.462;2023-10-19T11:38:47;98275.91;;;8.26;70.08
66385;BME280;53426;55.872;37.462;2023-10-19T11:41:14;98311.16;;;8.62;70.01
66385;BME280;53426;55.872;37.462;2023-10-19T11:43:45;98308.63;;;8.70;69.94
66385;BME280;53426;55.872;37.462;2023-10-19T11:46:11;98307.66;;;8.71;69.07
66385;BME280;53426;55.872;37.462;2023-10-19T11:48:39;98309.13;;;8.56;69.65
66385;BME280;53426;55.872;37.462;2023-10-19T11:51:06;98284.25;;;8.22;69.87
66385;BME280;53426;55.872;37.462;2023-10-19T11:53:33;98297.94;;;8.35;70.94
66385;BME280;53426;55.872;37.462;2023-10-19T11:56:11;98290.19;;;8.24;70.79
66385;BME280;53426;55.872;37.462;2023-10-19T11:58:39;98311.16;;;8.25;71.57
66385;BME280;53426;55.872;37.462;2023-10-19T12:01:10;98301.88;;;8.21;71.64
66385;BME280;53426;55.872;37.462;2023-10-19T12:03:40;98313.91;;;8.24;71.24
66385;BME280;53426;55.872;37.462;2023-10-19T12:06:07;98306.63;;;8.18;71.21
66385;BME280;53426;55.872;37.462;2023-10-19T12:08:34;98315.88;;;8.22;71.45
66385;BME280;53426;55.872;37.462;2023-10-19T12:11:04;98310.50;;;8.14;71.35
66385;BME280;53426;55.872;37.462;2023-10-19T12:13:38;98268.41;;;7.85;71.40
66385;BME280;53426;55.872;37.462;2023-10-19T12:16:05;98284.88;;;7.96;71.42
66385;BME280;53426;55.872;37.462;2023-10-19T12:18:31;98308.66;;;8.24;71.76
66385;BME280;53426;55.872;37.462;2023-10-19T12:20:58;98310.47;;;8.33;71.40
66385;BME280;53426;55.872;37.462;2023-10-19T12:23:26;98306.44;;;8.38;71.13
66385;BME280;53426;55.872;37.462;2023-10-19T12:25:52;98300.06;;;8.22;70.41
66385;BME280;53426;55.872;37.462;2023-10-19T12:28:19;98300.91;;;8.22;70.34
66385;BME280;53426;55.872;37.462;2023-10-19T12:30:44;98314.91;;;8.23;70.75
66385;BME280;53426;55.872;37.462;2023-10-19T12:33:11;98322.84;;;8.13;70.74
66385;BME280;53426;55.872;37.462;2023-10-19T12:35:39;98322.72;;;8.05;70.81
66385;BME280;53426;55.872;37.462;2023-10-19T12:38:19;98297.81;;;7.90;71.53
66385;BME280;53426;55.872;37.462;2023-10-19T12:40:47;98325.09;;;7.98;71.37
66385;BME280;53426;55.872;37.462;2023-10-19T12:43:14;98324.44;;;7.87;71.95
66385;BME280;53426;55.872;37.462;2023-10-19T12:45:41;98319.19;;;7.77;72.01
66385;BME280;53426;55.872;37.462;2023-10-19T12:51:12;98130.69;;;6.61;72.61
66385;BME280;53426;55.872;37.462;2023-10-19T12:53:39;98330.13;;;7.82;72.67
66385;BME280;53426;55.872;37.462;2023-10-19T12:59:42;98320.56;;;7.72;73.21
66385;BME280;53426;55.872;37.462;2023-10-19T13:02:10;98303.22;;;7.69;73.32
66385;BME280;53426;55.872;37.462;2023-10-19T13:04:40;98298.94;;;7.58;73.26
66385;BME280;53426;55.872;37.462;2023-10-19T13:07:10;98239.25;;;7.30;73.44
66385;BME280;53426;55.872;37.462;2023-10-19T13:13:02;98327.09;;;7.68;74.22
66385;BME280;53426;55.872;37.462;2023-10-19T13:15:31;98326.53;;;7.64;74.99
66385;BME280;53426;55.872;37.462;2023-10-19T13:17:58;98327.38;;;7.65;75.35
66385;BME280;53426;55.872;37.462;2023-10-19T13:20:28;98298.53;;;7.53;75.98
66385;BME280;53426;55.872;37.462;2023-10-19T13:23:07;98287.47;;;7.50;76.24
66385;BME280;53426;55.872;37.462;2023-10-19T13:25:38;98325.41;;;7.76;76.44
66385;BME280;53426;55.872;37.462;2023-10-19T13:28:07;98309.75;;;7.65;76.60
66385;BME280;53426;55.872;37.462;2023-10-19T13:30:41;98324.44;;;7.77;76.86
66385;BME280;53426;55.872;37.462;2023-10-19T13:33:08;98325.72;;;7.73;76.86
66385;BME280;53426;55.872;37.462;2023-10-19T13:35:39;98328.19;;;7.75;77.49
66385;BME280;53426;55.872;37.462;2023-10-19T13:38:07;98336.25;;;7.73;77.38
66385;BME280;53426;55.872;37.462;2023-10-19T13:40:40;98341.09;;;7.78;77.87
66385;BME280;53426;55.872;37.462;2023-10-19T13:43:07;98314.63;;;7.60;78.17